KMML

Southwest Minnesota Regional Marshall / Ryan Field Airport

Marshall, Minnesota, USA
METAR KMML 191656Z AUTO 33010KT 10SM CLR M23/M27 A3043 RMK AO2 SNB27E48 SLP344 P0000 T12331267 FZRANO
Observed Flight Rules
Jan-19 @ 16:56 UTC (41 minutes ago) Visual Flight Rules
Wind Visibility Clouds
330° at 10 knots 10 miles
  • Clear skies
Temperatures Readings Precipitation
Current -23°C / -9°F
Dewpoint -27°C / -17°F
Humidity 70%
Altimeter 30.43" Hg
Pressure 1034.4 hPa
Elevation 359
Current Rain 0.01
METAR KMML 191656Z AUTO 33010KT 10SM CLR M23/M27 A3043 RMK AO2 SNB27E48 SLP344 P0000 T12331267 FZRANO
Observed Flight Rules
Jan-19 @ 16:56 UTC
(41 minutes ago)
VFR
Wind Visibility
330° at 10 knots 10 miles
Clouds
  • Clear skies
Temperature Dewpoint
-23°C / -9°F -27°C / -17°F
Humidity Altimeter Pressure
70% 30.43" Hg 1034.4 hPa
Current Rain
0.01